sensor_id;sensor_type;location;lat;lon;timestamp;P1;durP1;ratioP1;P2;durP2;ratioP2
31686;SDS011;18285;51.330;4.946;2023-07-20T00:19:15;0.30;;;0.30;;
31686;SDS011;18285;51.330;4.946;2023-07-20T00:43:26;0.40;;;0.40;;
31686;SDS011;18285;51.330;4.946;2023-07-20T01:07:38;0.65;;;0.50;;
31686;SDS011;18285;51.330;4.946;2023-07-20T01:31:53;0.50;;;0.30;;
31686;SDS011;18285;51.330;4.946;2023-07-20T01:56:05;0.30;;;0.30;;
31686;SDS011;18285;51.330;4.946;2023-07-20T02:20:16;0.40;;;0.40;;
31686;SDS011;18285;51.330;4.946;2023-07-20T02:44:27;0.30;;;0.30;;
31686;SDS011;18285;51.330;4.946;2023-07-20T03:08:38;0.40;;;0.40;;
31686;SDS011;18285;51.330;4.946;2023-07-20T03:32:51;0.40;;;0.30;;
31686;SDS011;18285;51.330;4.946;2023-07-20T03:57:01;0.50;;;0.30;;
31686;SDS011;18285;51.330;4.946;2023-07-20T04:21:12;0.75;;;0.40;;
31686;SDS011;18285;51.330;4.946;2023-07-20T04:45:23;0.55;;;0.38;;
31686;SDS011;18285;51.330;4.946;2023-07-20T05:09:34;0.52;;;0.40;;
31686;SDS011;18285;51.330;4.946;2023-07-20T05:33:45;0.63;;;0.40;;
31686;SDS011;18285;51.330;4.946;2023-07-20T05:57:55;0.38;;;0.30;;
31686;SDS011;18285;51.330;4.946;2023-07-20T06:22:06;0.40;;;0.40;;
31686;SDS011;18285;51.330;4.946;2023-07-20T06:46:17;0.30;;;0.30;;
31686;SDS011;18285;51.330;4.946;2023-07-20T07:10:27;0.30;;;0.30;;
31686;SDS011;18285;51.330;4.946;2023-07-20T07:34:38;0.25;;;0.25;;
31686;SDS011;18285;51.330;4.946;2023-07-20T07:58:49;0.55;;;0.30;;
31686;SDS011;18285;51.330;4.946;2023-07-20T08:23:01;0.40;;;0.20;;
31686;SDS011;18285;51.330;4.946;2023-07-20T08:47:12;0.30;;;0.20;;
31686;SDS011;18285;51.330;4.946;2023-07-20T09:11:25;0.30;;;0.30;;
31686;SDS011;18285;51.330;4.946;2023-07-20T09:35:36;0.20;;;0.10;;
31686;SDS011;18285;51.330;4.946;2023-07-20T09:59:47;0.20;;;0.20;;
31686;SDS011;18285;51.330;4.946;2023-07-20T10:23:57;0.20;;;0.20;;
31686;SDS011;18285;51.330;4.946;2023-07-20T10:48:14;0.20;;;0.20;;
31686;SDS011;18285;51.330;4.946;2023-07-20T11:12:34;0.20;;;0.20;;
31686;SDS011;18285;51.330;4.946;2023-07-20T11:36:46;0.13;;;0.13;;
31686;SDS011;18285;51.330;4.946;2023-07-20T12:01:00;0.10;;;0.10;;
31686;SDS011;18285;51.330;4.946;2023-07-20T12:25:11;0.17;;;0.17;;
31686;SDS011;18285;51.330;4.946;2023-07-20T12:49:21;0.10;;;0.10;;
31686;SDS011;18285;51.330;4.946;2023-07-20T13:13:32;0.10;;;0.10;;
31686;SDS011;18285;51.330;4.946;2023-07-20T13:37:42;0.17;;;0.17;;
31686;SDS011;18285;51.330;4.946;2023-07-20T14:01:53;0.10;;;0.10;;
31686;SDS011;18285;51.330;4.946;2023-07-20T14:26:04;0.10;;;0.10;;
31686;SDS011;18285;51.330;4.946;2023-07-20T14:50:15;0.10;;;0.10;;
31686;SDS011;18285;51.330;4.946;2023-07-20T15:14:25;0.10;;;0.10;;
31686;SDS011;18285;51.330;4.946;2023-07-20T15:38:36;0.00;;;0.00;;
31686;SDS011;18285;51.330;4.946;2023-07-20T16:02:48;0.10;;;0.10;;
31686;SDS011;18285;51.330;4.946;2023-07-20T16:26:59;0.10;;;0.10;;
31686;SDS011;18285;51.330;4.946;2023-07-20T16:51:09;0.10;;;0.10;;
31686;SDS011;18285;51.330;4.946;2023-07-20T17:15:20;0.03;;;0.00;;
31686;SDS011;18285;51.330;4.946;2023-07-20T17:39:32;0.10;;;0.10;;
31686;SDS011;18285;51.330;4.946;2023-07-20T18:03:43;0.17;;;0.10;;
31686;SDS011;18285;51.330;4.946;2023-07-20T18:27:54;0.10;;;0.10;;
31686;SDS011;18285;51.330;4.946;2023-07-20T18:52:05;0.10;;;0.10;;
31686;SDS011;18285;51.330;4.946;2023-07-20T19:16:16;0.10;;;0.10;;
31686;SDS011;18285;51.330;4.946;2023-07-20T19:40:27;0.20;;;0.20;;
31686;SDS011;18285;51.330;4.946;2023-07-20T20:04:37;0.10;;;0.10;;
31686;SDS011;18285;51.330;4.946;2023-07-20T20:28:48;0.20;;;0.20;;
31686;SDS011;18285;51.330;4.946;2023-07-20T20:52:59;0.57;;;0.20;;
31686;SDS011;18285;51.330;4.946;2023-07-20T21:17:09;0.20;;;0.20;;
31686;SDS011;18285;51.330;4.946;2023-07-20T21:41:20;0.77;;;0.30;;
31686;SDS011;18285;51.330;4.946;2023-07-20T22:05:30;0.25;;;0.25;;
31686;SDS011;18285;51.330;4.946;2023-07-20T22:29:42;0.20;;;0.20;;
31686;SDS011;18285;51.330;4.946;2023-07-20T22:53:52;0.20;;;0.20;;
31686;SDS011;18285;51.330;4.946;2023-07-20T23:18:03;0.30;;;0.30;;
31686;SDS011;18285;51.330;4.946;2023-07-20T23:42:16;0.30;;;0.30;;
